Time;durP1;ratioP1;P1;durP2;ratioP2;P2;SDS_P1;SDS_P2;PMS_P1;PMS_P2;Temp;Humidity;BMP_temperature;BMP_pressure;BME280_temperature;BME280_humidity;BME280_pressure;Samples;Min_cycle;Max_cycle;Signal;HPM_P1;HPM_P2
2023/07/10 00:04:35;;;;;;;;;;;;;;;17.41;63.77;99128.73;225888;1278;22557;-72
2023/07/10 00:17:25;;;;;;;10.30;8.10;;;;;;;17.38;64.27;99133.40;225845;1277;22563;-72
2023/07/10 00:22:50;;;;;;;8.60;7.60;;;;;;;17.36;64.19;99132.33;225825;1280;22563;-72
2023/07/10 00:27:53;;;;;;;8.20;7.30;;;;;;;17.33;64.29;99133.39;225734;1280;22572;-73
2023/07/10 00:32:55;;;;;;;9.20;8.00;;;;;;;17.28;64.58;99139.52;225809;1279;22537;-73
2023/07/10 00:38:01;;;;;;;8.30;7.20;;;;;;;17.22;64.83;99141.05;225860;1276;22621;-72
2023/07/10 00:43:39;;;;;;;8.80;8.00;;;;;;;17.17;65.13;99141.33;225928;1278;22558;-72
2023/07/10 00:48:56;;;;;;;8.60;7.40;;;;;;;17.11;65.09;99135.17;225865;1278;22536;-72
2023/07/10 00:54:01;;;;;;;8.60;7.80;;;;;;;17.05;65.44;99135.58;225917;1273;22564;-72
2023/07/10 00:59:25;;;;;;;10.70;8.10;;;;;;;16.96;65.42;99122.69;225802;1280;22631;-72
2023/07/10 01:04:30;;;;;;;9.50;7.60;;;;;;;16.91;65.74;99127.50;225932;1279;23169;-72
2023/07/10 01:09:33;;;;;;;10.00;7.30;;;;;;;16.88;65.77;99122.40;225865;1279;22642;-72
2023/07/10 01:14:35;;;;;;;7.70;6.90;;;;;;;16.87;65.89;99121.38;225982;1263;22563;-72
2023/07/10 01:19:38;;;;;;;9.00;7.10;;;;;;;16.88;66.14;99114.52;225971;1278;22637;-72
2023/07/10 01:24:41;;;;;;;8.70;7.10;;;;;;;16.86;65.95;99113.70;225865;1281;22565;-72
2023/07/10 01:29:48;;;;;;;8.50;7.70;;;;;;;16.81;65.95;99114.61;225825;1278;22539;-72
2023/07/10 01:34:56;;;;;;;9.70;7.70;;;;;;;16.80;66.29;99114.66;225747;1280;22547;-71
2023/07/10 01:39:58;;;;;;;9.70;6.80;;;;;;;16.74;66.19;99119.05;225871;1278;22544;-72
2023/07/10 01:45:09;;;;;;;7.70;6.90;;;;;;;16.67;66.30;99113.72;225922;1280;24890;-72
2023/07/10 01:50:11;;;;;;;10.90;6.90;;;;;;;16.62;66.29;99108.12;225822;1280;22594;-72
2023/07/10 01:55:20;;;;;;;8.20;6.70;;;;;;;16.60;66.52;99103.88;225896;1277;22576;-73
2023/07/10 02:00:22;;;;;;;9.00;7.00;;;;;;;16.57;66.42;99099.42;225920;1280;22533;-72
2023/07/10 02:05:56;;;;;;;9.20;7.30;;;;;;;16.54;66.68;99094.14;225903;1279;24281;-72
2023/07/10 02:11:08;;;;;;;8.00;7.10;;;;;;;16.48;66.63;99088.52;225912;1280;22559;-72
2023/07/10 02:16:13;;;;;;;11.00;7.70;;;;;;;16.41;66.76;99084.09;225732;1281;22553;-73
2023/07/10 02:21:18;;;;;;;9.30;7.80;;;;;;;16.33;67.16;99088.45;225819;1281;24903;-73
2023/07/10 02:26:21;;;;;;;8.40;7.50;;;;;;;16.26;67.16;99094.95;225781;1259;22568;-72
2023/07/10 02:31:27;;;;;;;8.30;7.50;;;;;;;16.20;67.38;99103.84;225891;1280;25883;-72
2023/07/10 02:36:33;;;;;;;9.90;7.70;;;;;;;16.16;67.51;99108.61;225862;1279;22536;-72
2023/07/10 02:41:35;;;;;;;8.10;7.10;;;;;;;16.13;67.53;99108.05;225852;1279;22539;-73
2023/07/10 02:46:37;;;;;;;9.50;8.20;;;;;;;16.10;67.72;99103.80;225711;1280;22539;-73
2023/07/10 02:51:39;;;;;;;11.30;8.60;;;;;;;16.08;68.35;99109.42;225879;1279;22545;-72
2023/07/10 02:56:41;;;;;;;9.50;7.70;;;;;;;16.07;68.34;99112.27;225889;1280;22552;-72
2023/07/10 03:01:46;;;;;;;8.80;7.90;;;;;;;16.07;68.55;99103.04;225929;1273;22541;-72
2023/07/10 03:06:49;;;;;;;7.60;6.80;;;;;;;16.09;68.73;99095.80;225864;1280;25457;-72
2023/07/10 03:11:51;;;;;;;9.30;7.10;;;;;;;16.13;68.52;99092.51;225824;1280;25449;-72
2023/07/10 03:16:53;;;;;;;7.90;6.50;;;;;;;16.18;68.49;99093.89;225845;1281;23593;-72
2023/07/10 03:21:55;;;;;;;7.40;6.70;;;;;;;16.25;68.05;99093.77;225937;1279;22561;-72
2023/07/10 03:26:58;;;;;;;7.10;5.70;;;;;;;16.37;68.17;99095.04;225846;1276;22544;-71
2023/07/10 03:32:00;;;;;;;8.20;6.20;;;;;;;16.51;67.65;99091.55;225827;1276;22927;-72
2023/07/10 03:37:06;;;;;;;9.60;6.60;;;;;;;16.63;67.77;99099.78;225667;1280;22666;-72
2023/07/10 03:42:08;;;;;;;8.40;6.80;;;;;;;16.71;67.56;99099.89;225789;1279;22549;-72
2023/07/10 03:47:10;;;;;;;7.00;6.30;;;;;;;16.77;67.36;99103.00;225704;1280;22547;-72
2023/07/10 03:52:12;;;;;;;9.30;7.00;;;;;;;16.81;67.43;99096.92;225882;1277;22575;-72
2023/07/10 03:57:14;;;;;;;7.40;6.40;;;;;;;16.88;67.53;99096.33;225833;1280;22567;-72
2023/07/10 04:02:16;;;;;;;8.40;6.40;;;;;;;17.03;67.82;99098.39;225857;1276;22581;-72
2023/07/10 04:07:19;;;;;;;7.40;5.90;;;;;;;17.34;67.42;99098.45;225783;1279;22571;-72
2023/07/10 04:12:21;;;;;;;7.00;6.00;;;;;;;17.69;67.01;99100.42;225811;1280;22620;-71
2023/07/10 04:17:23;;;;;;;6.90;6.20;;;;;;;18.02;66.74;99097.28;225815;1280;25255;-72
2023/07/10 04:22:25;;;;;;;8.50;6.40;;;;;;;18.28;66.36;99092.98;225694;1281;22544;-72
2023/07/10 04:27:27;;;;;;;8.80;6.50;;;;;;;18.44;65.95;99089.19;225839;1276;22736;-72
2023/07/10 04:32:40;;;;;;;7.10;6.30;;;;;;;18.53;65.93;99089.16;225843;1273;22553;-72
2023/07/10 04:37:44;;;;;;;8.20;6.40;;;;;;;18.59;66.06;99092.67;225696;1280;22535;-72
2023/07/10 04:42:49;;;;;;;7.30;6.30;;;;;;;18.73;66.04;99097.60;225866;1277;22532;-72
2023/07/10 04:47:52;;;;;;;7.10;6.10;;;;;;;18.82;65.83;99091.27;225892;1280;22546;-72
2023/07/10 04:52:54;;;;;;;6.80;6.10;;;;;;;18.99;65.87;99092.10;225843;1280;22565;-72
2023/07/10 04:57:56;;;;;;;7.60;6.30;;;;;;;19.21;65.83;99097.76;225869;1276;25399;-73
2023/07/10 05:03:17;;;;;;;;;;;;;;;;;;;;;
2023/07/10 05:08:21;;;;;;;7.40;6.70;;;;;;;19.72;65.60;99108.09;225726;1280;22528;-73
2023/07/10 05:13:26;;;;;;;7.30;6.30;;;;;;;19.99;65.30;99109.18;225827;1274;22528;-73
2023/07/10 05:18:29;;;;;;;8.10;6.20;;;;;;;20.24;64.82;99111.95;225872;1280;22551;-72
2023/07/10 05:23:36;;;;;;;8.30;6.50;;;;;;;20.44;64.51;99115.59;225809;1280;25274;-72
2023/07/10 05:28:42;;;;;;;7.90;6.80;;;;;;;20.68;64.55;99115.37;225775;1280;22536;-72
2023/07/10 05:33:52;;;;;;;7.50;6.00;;;;;;;21.00;64.78;99117.13;225692;1280;24220;-72
2023/07/10 05:38:55;;;;;;;8.50;7.40;;;;;;;21.36;64.24;99121.09;225818;1280;22555;-72
2023/07/10 05:43:57;;;;;;;13.80;7.60;;;;;;;21.59;62.76;99114.81;225543;1278;22616;-75
2023/07/10 05:49:00;;;;;;;10.90;8.00;;;;;;;21.74;62.31;99106.70;225628;1276;22536;-73
2023/07/10 05:54:02;;;;;;;12.70;9.60;;;;;;;21.90;61.43;99107.73;225556;1275;22710;-74
2023/07/10 05:59:18;;;;;;;14.30;9.90;;;;;;;22.03;60.81;99105.16;225603;1270;22585;-74
2023/07/10 06:04:20;;;;;;;14.80;10.70;;;;;;;22.18;60.17;99101.95;225289;1280;23856;-73
2023/07/10 06:09:22;;;;;;;15.30;8.20;;;;;;;22.34;59.67;99098.59;225276;1274;22737;-74
2023/07/10 06:14:25;;;;;;;10.40;8.20;;;;;;;22.60;59.89;99096.21;225443;1264;24292;-74
2023/07/10 06:19:27;;;;;;;11.00;8.90;;;;;;;22.88;59.68;99093.26;225476;1260;24272;-75
2023/07/10 06:24:29;;;;;;;12.50;8.90;;;;;;;23.00;58.97;99084.48;225169;1273;22576;-75
2023/07/10 06:29:34;;;;;;;10.50;9.40;;;;;;;23.08;58.65;99078.17;225317;1262;22557;-73
2023/07/10 06:34:36;;;;;;;11.60;9.60;;;;;;;23.05;58.72;99068.23;225310;1272;25258;-75
2023/07/10 06:39:38;;;;;;;15.10;10.00;;;;;;;23.20;58.72;99068.63;225290;1274;25336;-76
2023/07/10 06:44:41;;;;;;;14.70;10.10;;;;;;;23.39;58.49;99060.13;225483;1258;22602;-75
2023/07/10 06:50:03;;;;;;;15.70;10.00;;;;;;;23.63;57.66;99064.45;225462;1273;22532;-78
2023/07/10 06:55:10;;;;;;;16.20;10.70;;;;;;;23.92;57.13;99062.18;224781;1279;22943;-77
2023/07/10 07:00:14;;;;;;;18.60;10.80;;;;;;;24.14;56.35;99062.31;224741;1262;22591;-76
2023/07/10 07:05:19;;;;;;;13.50;10.30;;;;;;;24.45;56.21;99068.06;224572;1281;22547;-76
2023/07/10 07:10:21;;;;;;;24.80;11.70;;;;;;;24.90;55.55;99065.02;224681;1270;25281;-75
2023/07/10 07:15:23;;;;;;;157.70;24.50;;;;;;;25.51;55.18;99067.96;224586;1270;22554;-76
2023/07/10 07:20:25;;;;;;;61.40;14.80;;;;;;;26.19;54.26;99071.36;224875;1262;22560;-76
2023/07/10 07:25:29;;;;;;;12.60;10.10;;;;;;;26.62;52.87;99063.19;225152;1280;25288;-75
2023/07/10 07:30:34;;;;;;;65.40;14.90;;;;;;;26.87;52.38;99063.21;225462;1265;22546;-76
2023/07/10 07:35:37;;;;;;;22.60;10.80;;;;;;;26.95;51.57;99057.03;225401;1274;22572;-77
2023/07/10 07:40:39;;;;;;;22.80;11.20;;;;;;;27.12;52.02;99057.05;225380;1272;22554;-77
2023/07/10 07:45:53;;;;;;;32.10;12.60;;;;;;;27.25;51.58;99061.52;225310;1264;22532;-76
2023/07/10 07:50:59;;;;;;;23.70;11.10;;;;;;;27.33;51.83;99061.08;225463;1269;24222;-76
2023/07/10 07:56:01;;;;;;;45.10;14.20;;;;;;;27.38;51.89;99055.20;225414;1257;22540;-74
2023/07/10 08:01:07;;;;;;;14.30;10.80;;;;;;;27.39;51.92;99051.94;225261;1260;25249;-71
2023/07/10 08:06:09;;;;;;;17.00;10.50;;;;;;;27.52;52.20;99047.16;225096;1265;24275;-71
2023/07/10 08:11:11;;;;;;;16.30;11.10;;;;;;;27.63;51.95;99048.38;225402;1273;22587;-72
2023/07/10 08:16:14;;;;;;;16.70;11.30;;;;;;;27.61;51.63;99041.89;225309;1262;24279;-72
2023/07/10 08:21:18;;;;;;;15.20;10.50;;;;;;;27.79;51.78;99045.28;225331;1274;22536;-73
2023/07/10 08:26:20;;;;;;;20.30;11.20;;;;;;;28.06;50.98;99042.47;225180;1262;24256;-71
2023/07/10 08:31:24;;;;;;;22.80;11.10;;;;;;;28.22;50.53;99043.77;225209;1273;22565;-72
2023/07/10 08:36:27;;;;;;;22.60;10.90;;;;;;;28.27;49.97;99047.49;225311;1265;22562;-72
2023/07/10 08:41:29;;;;;;;21.70;15.40;;;;;;;28.15;49.70;99046.20;225281;1259;23246;-71
2023/07/10 08:46:32;;;;;;;17.60;11.20;;;;;;;28.26;49.47;99041.48;225277;1262;22544;-72
2023/07/10 08:51:55;;;;;;;12.30;9.20;;;;;;;28.48;49.35;99036.85;226070;1273;22576;-72
2023/07/10 08:57:19;;;;;;;11.00;8.50;;;;;;;28.88;49.14;99035.75;225293;1265;24406;-72
2023/07/10 09:02:50;;;;;;;15.50;8.80;;;;;;;29.25;48.00;99029.79;225407;1266;22533;-71
2023/07/10 09:07:54;;;;;;;17.90;10.80;;;;;;;29.53;47.88;99035.86;225310;1265;22595;-71
2023/07/10 09:13:00;;;;;;;15.10;10.90;;;;;;;29.72;47.29;99035.48;225184;1259;22928;-71
2023/07/10 09:18:20;;;;;;;13.90;9.80;;;;;;;29.96;47.23;99035.30;225234;1262;22561;-71
2023/07/10 09:23:33;;;;;;;16.00;10.20;;;;;;;30.25;47.16;99030.98;225433;1258;22898;-71
2023/07/10 09:28:39;;;;;;;19.50;10.00;;;;;;;30.50;46.91;99030.23;225570;1272;22609;-71
2023/07/10 09:33:43;;;;;;;16.20;9.80;;;;;;;30.66;46.40;99031.23;225509;1270;24220;-72
2023/07/10 09:38:47;;;;;;;19.50;8.80;;;;;;;30.76;46.40;99026.92;225465;1274;22577;-70
2023/07/10 09:43:55;;;;;;;12.70;9.20;;;;;;;31.00;45.67;99031.95;225462;1262;22561;-70
2023/07/10 09:49:16;;;;;;;14.10;8.40;;;;;;;31.23;45.52;99036.77;225383;1274;22567;-72
2023/07/10 09:54:18;;;;;;;7.00;6.20;;;;;;;31.41;43.77;99031.61;225331;1279;22569;-70
2023/07/10 09:59:24;;;;;;;12.90;7.60;;;;;;;31.50;42.68;99033.77;225526;1258;22554;-70
2023/07/10 10:04:29;;;;;;;6.50;5.90;;;;;;;31.71;42.58;99034.20;225531;1262;22547;-72
2023/07/10 10:09:32;;;;;;;9.00;5.90;;;;;;;31.89;41.64;99032.70;225321;1273;22569;-72
2023/07/10 10:14:42;;;;;;;6.80;6.10;;;;;;;32.01;40.98;99033.98;225841;1273;22671;-71
2023/07/10 10:19:51;;;;;;;7.80;6.30;;;;;;;32.05;40.48;99027.70;225250;1272;23630;-72
2023/07/10 10:24:53;;;;;;;9.90;6.00;;;;;;;32.07;40.80;99020.96;225456;1274;23049;-73
2023/07/10 10:30:11;;;;;;;6.60;5.70;;;;;;;32.01;40.45;99019.63;225405;1275;24304;-73
2023/07/10 10:35:32;;;;;;;;;;;;;;;31.85;39.83;99020.86;225449;1272;22517;-72
2023/07/10 10:40:45;;;;;;;7.20;6.60;;;;;;;31.76;40.02;99019.35;225296;1261;25346;-73
2023/07/10 10:45:58;;;;;;;8.40;6.40;;;;;;;31.59;39.95;99015.77;225148;1262;22550;-71
2023/07/10 10:51:00;;;;;;;6.20;5.60;;;;;;;31.22;40.47;99009.64;225114;1259;24589;-71
2023/07/10 10:56:15;;;;;;;7.80;6.10;;;;;;;30.95;41.28;99018.16;225333;1262;23150;-72
2023/07/10 11:01:40;;;;;;;7.00;6.20;;;;;;;30.78;41.59;99020.22;225220;1273;22536;-73
2023/07/10 11:06:50;;;;;;;7.10;6.40;;;;;;;30.65;41.78;99019.58;225456;1280;22579;-71
2023/07/10 11:11:54;;;;;;;7.30;6.20;;;;;;;30.61;41.76;99027.52;225330;1276;22813;-71
2023/07/10 11:16:57;;;;;;;9.60;5.90;;;;;;;30.57;41.81;99037.31;225405;1259;23118;-69
2023/07/10 11:22:19;;;;;;;6.50;5.90;;;;;;;30.62;41.51;99045.75;225106;1273;22568;-72
2023/07/10 11:27:29;;;;;;;6.10;5.20;;;;;;;30.74;41.01;99042.86;225529;1272;22543;-72
2023/07/10 11:32:35;;;;;;;6.30;4.90;;;;;;;30.84;40.29;99033.60;225299;1272;22554;-70
2023/07/10 11:37:47;;;;;;;5.90;5.10;;;;;;;30.90;39.98;99027.19;225463;1275;22622;-73
2023/07/10 11:42:49;;;;;;;5.60;5.10;;;;;;;30.93;39.99;99022.10;225242;1273;24980;-72
2023/07/10 11:47:52;;;;;;;6.30;5.60;;;;;;;30.98;39.86;99011.09;225437;1275;22551;-71
2023/07/10 11:53:22;;;;;;;6.80;6.20;;;;;;;31.07;40.15;99001.66;225271;1272;24466;-71
2023/07/10 11:58:29;;;;;;;6.50;5.80;;;;;;;31.20;40.61;98986.67;225328;1274;22547;-70
2023/07/10 12:03:34;;;;;;;8.20;6.60;;;;;;;31.41;41.06;98956.09;225532;1273;22670;-71
2023/07/10 12:08:39;;;;;;;8.60;6.40;;;;;;;31.59;40.68;98939.55;225744;1277;22549;-70
2023/07/10 12:13:41;;;;;;;6.80;6.20;;;;;;;31.52;40.65;98934.34;225487;1278;22550;-71
2023/07/10 12:18:43;;;;;;;7.00;6.30;;;;;;;31.36;40.43;98938.89;225629;1276;22957;-72
2023/07/10 12:23:54;;;;;;;7.80;6.90;;;;;;;31.14;40.20;98928.96;225557;1275;22549;-71
2023/07/10 12:28:57;;;;;;;8.30;7.00;;;;;;;31.03;40.85;98905.20;225334;1265;22557;-71
2023/07/10 12:34:00;;;;;;;7.60;6.90;;;;;;;30.82;40.92;98903.85;225373;1273;22508;-71
2023/07/10 12:39:08;;;;;;;8.70;7.20;;;;;;;30.55;41.56;98889.20;225537;1280;22533;-71
2023/07/10 12:44:21;;;;;;;8.40;7.70;;;;;;;30.39;41.59;98890.16;225575;1274;22553;-69
2023/07/10 12:49:30;;;;;;;8.80;8.00;;;;;;;30.11;42.47;98882.22;225350;1259;22547;-71
2023/07/10 12:54:43;;;;;;;8.20;7.60;;;;;;;30.08;43.42;98880.27;225484;1274;22553;-71
2023/07/10 12:59:47;;;;;;;12.40;7.80;;;;;;;30.16;43.72;98856.30;225468;1273;22544;-70
2023/07/10 13:04:55;;;;;;;7.70;7.00;;;;;;;30.02;43.25;98841.73;225439;1261;25258;-73
2023/07/10 13:10:03;;;;;;;7.70;7.00;;;;;;;30.01;41.89;98851.95;225369;1275;23823;-71
2023/07/10 13:15:11;;;;;;;7.60;6.90;;;;;;;30.06;42.31;98850.29;225340;1270;22737;-71
2023/07/10 13:20:26;;;;;;;8.60;7.40;;;;;;;30.22;42.15;98843.04;225357;1259;22598;-70
2023/07/10 13:25:32;;;;;;;7.00;6.40;;;;;;;30.45;41.42;98850.69;225362;1270;22544;-71
2023/07/10 13:30:34;;;;;;;8.10;7.20;;;;;;;30.65;40.48;98846.42;225487;1277;22571;-71
2023/07/10 13:35:36;;;;;;;7.20;6.50;;;;;;;30.88;40.57;98843.64;225533;1260;22557;-71
2023/07/10 13:40:38;;;;;;;6.60;6.10;;;;;;;31.14;40.44;98836.50;225403;1275;22741;-72
2023/07/10 13:45:42;;;;;;;8.10;6.70;;;;;;;31.48;39.70;98833.94;225634;1275;22574;-69
2023/07/10 13:50:46;;;;;;;8.30;6.70;;;;;;;31.71;39.20;98823.14;225364;1262;22547;-69
2023/07/10 13:55:50;;;;;;;7.90;6.60;;;;;;;31.81;39.37;98817.10;225510;1278;23094;-69
2023/07/10 14:00:55;;;;;;;8.50;6.80;;;;;;;31.78;39.28;98815.80;225330;1268;23016;-70
2023/07/10 14:05:57;;;;;;;8.30;7.00;;;;;;;31.62;39.46;98814.31;225151;1280;22532;-70
2023/07/10 14:11:02;;;;;;;8.70;7.20;;;;;;;31.58;39.54;98809.89;225631;1278;23685;-70
2023/07/10 14:16:12;;;;;;;7.00;6.30;;;;;;;31.48;39.79;98815.07;225566;1278;22544;-70
2023/07/10 14:21:15;;;;;;;7.80;7.00;;;;;;;31.31;40.36;98847.38;225548;1272;25118;-70
2023/07/10 14:26:25;;;;;;;7.40;6.70;;;;;;;30.99;41.20;98911.75;225578;1277;22563;-70
2023/07/10 14:31:29;;;;;;;7.10;6.40;;;;;;;30.44;41.87;98937.76;225593;1275;22543;-68
2023/07/10 14:36:31;;;;;;;17.90;6.10;;;;;;;29.87;42.46;98955.19;225719;1280;22565;-69
2023/07/10 14:41:33;;;;;;;9.80;6.90;;;;;;;28.93;45.64;98951.30;225910;1280;22592;-69
2023/07/10 14:46:37;;;;;;;7.50;6.80;;;;;;;27.79;47.89;98894.77;225881;1275;25350;-71
2023/07/10 14:51:49;;;;;;;7.20;6.60;;;;;;;27.05;50.60;98871.31;225893;1278;22538;-71
2023/07/10 14:56:56;;;;;;;7.90;7.10;;;;;;;26.69;53.36;98852.42;225922;1278;22564;-71
2023/07/10 15:01:59;;;;;;;7.40;6.70;;;;;;;26.43;55.12;98878.93;225618;1280;22547;-70
2023/07/10 15:07:04;;;;;;;7.40;6.80;;;;;;;26.12;55.19;98895.34;225907;1275;22576;-70
2023/07/10 15:12:31;;;;;;;7.10;6.50;;;;;;;25.80;55.76;98888.23;225917;1278;22597;-70
2023/07/10 15:17:33;;;;;;;7.00;6.30;;;;;;;25.33;56.37;98879.00;225856;1278;22548;-70
2023/07/10 15:22:39;;;;;;;7.10;6.50;;;;;;;24.87;57.37;98884.58;225928;1275;22654;-70
2023/07/10 15:27:41;;;;;;;7.00;6.40;;;;;;;24.55;58.48;98888.00;225815;1278;24206;-70
2023/07/10 15:32:45;;;;;;;7.70;7.00;;;;;;;24.26;59.35;98882.14;225960;1278;22566;-69
2023/07/10 15:37:47;;;;;;;7.30;6.20;;;;;;;24.07;59.89;98882.50;225819;1278;22615;-70
2023/07/10 15:42:54;;;;;;;8.30;5.90;;;;;;;23.92;60.44;98909.14;225982;1278;22527;-69
2023/07/10 15:48:00;;;;;;;6.60;6.00;;;;;;;23.75;60.92;98920.92;225800;1278;22527;-69
2023/07/10 15:53:02;;;;;;;6.40;5.30;;;;;;;23.58;61.78;98950.69;225694;1280;22578;-70
2023/07/10 15:58:15;;;;;;;7.00;5.80;;;;;;;23.36;62.76;98951.01;225883;1278;22644;-69
2023/07/10 16:03:46;;;;;;;6.10;5.50;;;;;;;23.21;63.33;98951.99;225845;1278;22553;-72
2023/07/10 16:08:55;;;;;;;5.40;4.90;;;;;;;23.05;63.58;98945.20;225867;1280;22555;-69
2023/07/10 16:14:01;;;;;;;5.80;5.10;;;;;;;22.99;63.95;98927.09;225876;1278;24831;-69
2023/07/10 16:19:09;;;;;;;6.70;5.50;;;;;;;22.94;64.35;98919.73;225764;1272;22552;-70
2023/07/10 16:24:14;;;;;;;5.90;5.30;;;;;;;22.87;64.79;98900.03;225645;1258;22527;-69
2023/07/10 16:29:16;;;;;;;6.00;5.20;;;;;;;22.82;65.16;98892.54;225843;1278;22537;-70
2023/07/10 16:34:20;;;;;;;6.70;5.20;;;;;;;22.78;65.28;98877.44;225785;1270;22547;-69
2023/07/10 16:39:21;;;;;;;6.70;5.10;;;;;;;22.84;65.66;98873.15;225953;1277;22543;-69
2023/07/10 16:44:24;;;;;;;6.00;5.40;;;;;;;22.94;66.30;98860.93;225828;1278;22738;-69
2023/07/10 16:49:28;;;;;;;6.10;5.60;;;;;;;23.12;66.37;98842.30;225815;1278;22563;-70
2023/07/10 16:54:31;;;;;;;7.10;5.40;;;;;;;23.35;66.18;98822.27;225794;1275;22543;-70
2023/07/10 16:59:36;;;;;;;5.90;5.40;;;;;;;23.55;65.77;98817.96;225944;1280;22562;-69
2023/07/10 17:04:38;;;;;;;7.00;5.60;;;;;;;23.71;65.15;98810.99;225978;1280;22520;-69
2023/07/10 17:09:40;;;;;;;6.10;5.50;;;;;;;23.81;64.85;98810.69;225795;1278;22603;-70
2023/07/10 17:14:42;;;;;;;6.30;5.70;;;;;;;23.84;64.77;98819.05;225954;1278;22543;-69
2023/07/10 17:19:44;;;;;;;6.90;6.10;;;;;;;23.88;64.98;98812.31;225875;1276;25260;-70
2023/07/10 17:24:46;;;;;;;7.70;6.60;;;;;;;24.30;65.58;98813.96;226008;1278;25269;-70
2023/07/10 17:29:49;;;;;;;7.50;6.80;;;;;;;24.95;64.81;98804.13;225810;1278;25937;-69
2023/07/10 17:34:54;;;;;;;8.40;7.00;;;;;;;25.13;64.04;98785.36;225740;1280;22566;-70
2023/07/10 17:39:59;;;;;;;7.60;6.50;;;;;;;25.54;63.64;98778.13;225814;1280;24154;-68
2023/07/10 17:45:01;;;;;;;6.50;5.90;;;;;;;25.66;62.09;98771.54;225905;1278;22563;-68
2023/07/10 17:50:03;;;;;;;7.00;6.30;;;;;;;25.43;61.48;98771.84;225829;1280;22543;-71
2023/07/10 17:55:14;;;;;;;8.50;7.20;;;;;;;25.00;61.13;98772.40;225683;1280;22555;-68
2023/07/10 18:00:17;;;;;;;10.20;7.30;;;;;;;24.53;61.35;98777.19;225957;1278;22541;-69
2023/07/10 18:05:31;;;;;;;7.80;7.00;;;;;;;24.09;61.92;98777.48;225899;1278;25037;-68
2023/07/10 18:10:33;;;;;;;8.10;7.20;;;;;;;23.65;62.44;98770.27;225784;1278;22557;-70
2023/07/10 18:15:36;;;;;;;9.70;7.80;;;;;;;23.35;63.24;98767.25;225959;1262;22557;-68
2023/07/10 18:20:40;;;;;;;8.30;7.30;;;;;;;23.06;63.82;98775.99;225612;1278;251313;-68
2023/07/10 18:25:45;;;;;;;9.10;7.90;;;;;;;22.80;64.70;98779.68;225943;1278;22545;-68
2023/07/10 18:30:57;;;;;;;9.10;8.20;;;;;;;22.57;65.29;98783.27;225789;1280;22543;-69
2023/07/10 18:36:19;;;;;;;8.80;7.90;;;;;;;22.40;65.99;98787.00;225943;1280;22530;-69
2023/07/10 18:41:25;;;;;;;10.20;9.10;;;;;;;22.21;66.71;98784.83;225975;1276;25284;-68
2023/07/10 18:46:28;;;;;;;10.00;8.30;;;;;;;21.99;67.50;98777.88;225872;1276;22543;-70
2023/07/10 18:51:33;;;;;;;11.10;8.60;;;;;;;21.82;68.42;98776.42;226034;1278;22505;-69
2023/07/10 18:56:36;;;;;;;11.40;10.10;;;;;;;21.66;69.04;98770.05;225908;1278;22601;-69
2023/07/10 19:01:41;;;;;;;9.70;8.80;;;;;;;21.54;69.73;98777.70;225841;1278;24954;-69
2023/07/10 19:07:03;;;;;;;10.00;8.90;;;;;;;21.44;70.26;98783.69;225833;1280;22552;-69
2023/07/10 19:12:25;;;;;;;;;;;;;;;;;;;;;
2023/07/10 19:17:40;;;;;;;11.90;9.10;;;;;;;21.23;71.34;98782.87;225807;1280;24889;-69
2023/07/10 19:22:42;;;;;;;10.20;9.10;;;;;;;21.12;71.73;98782.96;225849;1279;22555;-70
2023/07/10 19:27:45;;;;;;;10.10;9.00;;;;;;;21.05;72.18;98779.21;225955;1278;22550;-69
2023/07/10 19:32:54;;;;;;;10.10;8.60;;;;;;;20.99;72.70;98789.47;225826;1280;22543;-70
2023/07/10 19:37:57;;;;;;;10.90;9.90;;;;;;;20.91;73.15;98791.01;225730;1280;22576;-70
2023/07/10 19:42:59;;;;;;;12.30;10.20;;;;;;;20.84;73.63;98800.17;225898;1278;22601;-69
2023/07/10 19:48:01;;;;;;;11.30;10.10;;;;;;;20.80;73.72;98804.05;225851;1280;22594;-68
2023/07/10 19:53:29;;;;;;;14.30;10.50;;;;;;;20.79;73.96;98812.42;225998;1278;22565;-69
2023/07/10 19:58:33;;;;;;;11.50;9.90;;;;;;;20.77;74.11;98819.52;225947;1281;22545;-69
2023/07/10 20:03:36;;;;;;;11.10;10.10;;;;;;;20.76;74.38;98821.44;225884;1278;22547;-69
2023/07/10 20:08:38;;;;;;;11.10;10.00;;;;;;;20.73;74.69;98823.81;225794;1278;22536;-69
2023/07/10 20:13:40;;;;;;;12.60;11.30;;;;;;;20.67;75.05;98825.02;225806;1278;22747;-69
2023/07/10 20:18:42;;;;;;;13.40;12.10;;;;;;;20.62;75.40;98817.61;225719;1280;22558;-69
2023/07/10 20:23:44;;;;;;;12.80;10.60;;;;;;;20.57;75.83;98810.64;225834;1279;22576;-69
2023/07/10 20:28:47;;;;;;;12.60;11.30;;;;;;;20.54;75.89;98808.45;225832;1280;25271;-69
2023/07/10 20:33:50;;;;;;;12.50;11.20;;;;;;;20.54;76.06;98812.80;225725;1280;22549;-68
2023/07/10 20:39:15;;;;;;;13.20;11.50;;;;;;;20.56;76.31;98807.24;225981;1280;22612;-69
2023/07/10 20:44:18;;;;;;;11.80;10.50;;;;;;;20.56;76.68;98804.45;225759;1280;22556;-69
2023/07/10 20:49:23;;;;;;;12.20;10.20;;;;;;;20.56;76.70;98804.40;225743;1280;22550;-69
2023/07/10 20:54:27;;;;;;;11.10;10.00;;;;;;;20.57;76.58;98798.18;225937;1280;24524;-70
2023/07/10 20:59:29;;;;;;;10.60;9.60;;;;;;;20.60;76.45;98801.07;226030;1277;22533;-69
2023/07/10 21:04:48;;;;;;;9.70;8.70;;;;;;;20.63;76.44;98802.21;225702;1281;22633;-69
2023/07/10 21:09:55;;;;;;;11.40;9.00;;;;;;;20.64;76.17;98797.48;225940;1279;22540;-69
2023/07/10 21:15:01;;;;;;;9.50;8.50;;;;;;;20.62;76.38;98788.67;225965;1280;22560;-69
2023/07/10 21:20:04;;;;;;;11.00;8.50;;;;;;;20.59;76.19;98792.83;225831;1280;24266;-69
2023/07/10 21:25:17;;;;;;;9.50;8.50;;;;;;;20.56;76.28;98795.11;225835;1281;22561;-69
2023/07/10 21:36:17;;;;;;;9.70;8.70;;;;;;;20.40;76.71;98792.36;225869;1281;24421;-68
2023/07/10 21:41:51;;;;;;;9.40;8.30;;;;;;;20.35;76.75;98794.73;225882;1281;22636;-68
2023/07/10 21:46:56;;;;;;;10.40;8.40;;;;;;;20.32;76.86;98801.20;225711;1280;25416;-69
2023/07/10 21:52:01;;;;;;;9.80;8.80;;;;;;;20.29;77.09;98804.96;225816;1278;22552;-68
2023/07/10 21:57:03;;;;;;;11.40;9.00;;;;;;;20.26;77.26;98807.99;225953;1276;25295;-68
2023/07/10 22:02:10;;;;;;;10.20;9.20;;;;;;;20.25;77.25;98803.58;225759;1281;25249;-68
2023/07/10 22:07:12;;;;;;;11.40;8.90;;;;;;;20.25;77.45;98804.02;225932;1281;24285;-69
2023/07/10 22:12:57;;;;;;;10.80;8.40;;;;;;;20.29;77.49;98803.30;225914;1281;22560;-69
2023/07/10 22:18:24;;;;;;;10.10;9.10;;;;;;;20.27;77.78;98806.40;225791;1280;23039;-69
2023/07/10 22:24:17;;;;;;;12.80;9.10;;;;;;;20.26;77.97;98805.79;225766;1281;22545;-69
2023/07/10 22:29:22;;;;;;;10.00;9.00;;;;;;;20.24;78.03;98797.17;225906;1277;22555;-68
2023/07/10 22:34:35;;;;;;;10.50;9.20;;;;;;;20.22;78.01;98804.34;225729;1280;22543;-69
2023/07/10 22:39:57;;;;;;;11.30;9.20;;;;;;;20.20;78.01;98803.71;225668;1280;24234;-69
2023/07/10 22:45:22;;;;;;;10.20;8.80;;;;;;;20.17;78.10;98803.05;225730;1274;22532;-69
2023/07/10 22:50:24;;;;;;;11.50;8.60;;;;;;;20.15;78.11;98794.50;225831;1280;22592;-69
2023/07/10 22:55:32;;;;;;;13.40;8.80;;;;;;;20.12;78.12;98806.59;225880;1281;22559;-68
2023/07/10 23:00:34;;;;;;;9.20;8.30;;;;;;;20.10;78.30;98806.61;225765;1280;22570;-69
2023/07/10 23:06:02;;;;;;;11.90;8.90;;;;;;;20.08;78.38;98800.63;225884;1277;22562;-71
2023/07/10 23:11:08;;;;;;;11.30;8.70;;;;;;;20.09;78.36;98805.63;225802;1277;22534;-69
2023/07/10 23:16:39;;;;;;;11.70;8.90;;;;;;;20.12;78.57;98808.45;225866;1280;22554;-69
2023/07/10 23:22:08;;;;;;;11.10;8.40;;;;;;;20.12;78.63;98810.55;225813;1280;22549;-69
2023/07/10 23:27:20;;;;;;;;;;;;;;;;;;;;;
2023/07/10 23:33:27;;;;;;;12.60;9.10;;;;;;;20.01;78.74;98808.16;225830;1280;22555;-69
2023/07/10 23:38:52;;;;;;;12.50;9.10;;;;;;;19.96;78.84;98816.02;225876;1280;22700;-69
2023/07/10 23:44:24;;;;;;;12.60;9.70;;;;;;;19.92;78.87;98812.64;225725;1280;22547;-69
2023/07/10 23:50:05;;;;;;;;;;;;;;;;;;;;;
2023/07/10 23:55:29;;;;;;;;;;;;;;;;;;;;;
